METAR Data
IDs: Format: Raw Decoded Include TAF

Data at: 0518 UTC 26 May 2022

EDLW 260450Z 23010KT 9999 -DZ BKN016 OVC020 13/11 Q1018